sensor_id;sensor_type;location;lat;lon;timestamp;P1;durP1;ratioP1;P2;durP2;ratioP2
27517;SDS011;14962;52.482;13.142;2024-03-06T00:02:23;29.15;;;15.23;;
27517;SDS011;14962;52.482;13.142;2024-03-06T00:04:49;24.52;;;13.52;;
27517;SDS011;14962;52.482;13.142;2024-03-06T00:07:15;31.13;;;15.85;;
27517;SDS011;14962;52.482;13.142;2024-03-06T00:09:42;35.05;;;15.15;;
27517;SDS011;14962;52.482;13.142;2024-03-06T00:12:08;32.60;;;16.45;;
27517;SDS011;14962;52.482;13.142;2024-03-06T00:14:34;33.33;;;14.95;;
27517;SDS011;14962;52.482;13.142;2024-03-06T00:17:01;34.47;;;16.52;;
27517;SDS011;14962;52.482;13.142;2024-03-06T00:19:29;35.75;;;16.80;;
27517;SDS011;14962;52.482;13.142;2024-03-06T00:21:57;41.90;;;17.30;;
27517;SDS011;14962;52.482;13.142;2024-03-06T00:24:23;29.30;;;15.95;;
27517;SDS011;14962;52.482;13.142;2024-03-06T00:26:49;34.58;;;16.30;;
27517;SDS011;14962;52.482;13.142;2024-03-06T00:29:14;35.80;;;16.05;;
27517;SDS011;14962;52.482;13.142;2024-03-06T00:31:44;33.05;;;16.00;;
27517;SDS011;14962;52.482;13.142;2024-03-06T00:34:10;36.10;;;16.13;;
27517;SDS011;14962;52.482;13.142;2024-03-06T00:36:38;29.52;;;14.95;;
27517;SDS011;14962;52.482;13.142;2024-03-06T00:39:04;29.65;;;15.32;;
27517;SDS011;14962;52.482;13.142;2024-03-06T00:41:31;30.77;;;15.35;;
27517;SDS011;14962;52.482;13.142;2024-03-06T00:43:57;33.70;;;16.17;;
27517;SDS011;14962;52.482;13.142;2024-03-06T00:46:22;33.53;;;16.13;;
27517;SDS011;14962;52.482;13.142;2024-03-06T00:48:48;27.90;;;14.07;;
27517;SDS011;14962;52.482;13.142;2024-03-06T00:51:14;35.88;;;15.00;;
27517;SDS011;14962;52.482;13.142;2024-03-06T00:53:40;29.90;;;14.32;;
27517;SDS011;14962;52.482;13.142;2024-03-06T00:56:06;30.75;;;14.85;;
27517;SDS011;14962;52.482;13.142;2024-03-06T00:58:33;34.55;;;14.95;;
27517;SDS011;14962;52.482;13.142;2024-03-06T01:00:58;35.30;;;15.63;;
27517;SDS011;14962;52.482;13.142;2024-03-06T01:03:24;31.80;;;15.13;;
27517;SDS011;14962;52.482;13.142;2024-03-06T01:05:51;30.17;;;14.80;;
27517;SDS011;14962;52.482;13.142;2024-03-06T01:08:21;29.10;;;14.82;;
27517;SDS011;14962;52.482;13.142;2024-03-06T01:10:49;34.50;;;15.60;;
27517;SDS011;14962;52.482;13.142;2024-03-06T01:13:15;35.55;;;16.67;;
27517;SDS011;14962;52.482;13.142;2024-03-06T01:15:41;32.95;;;16.23;;
27517;SDS011;14962;52.482;13.142;2024-03-06T01:18:07;36.75;;;16.70;;
27517;SDS011;14962;52.482;13.142;2024-03-06T01:20:34;37.38;;;16.65;;
27517;SDS011;14962;52.482;13.142;2024-03-06T01:23:01;32.58;;;16.80;;
27517;SDS011;14962;52.482;13.142;2024-03-06T01:25:26;34.85;;;16.55;;
27517;SDS011;14962;52.482;13.142;2024-03-06T01:27:52;34.13;;;15.43;;
27517;SDS011;14962;52.482;13.142;2024-03-06T01:30:18;33.50;;;16.55;;
27517;SDS011;14962;52.482;13.142;2024-03-06T01:32:44;35.10;;;17.23;;
27517;SDS011;14962;52.482;13.142;2024-03-06T01:35:11;34.08;;;17.02;;
27517;SDS011;14962;52.482;13.142;2024-03-06T01:37:37;38.10;;;17.67;;
27517;SDS011;14962;52.482;13.142;2024-03-06T01:40:03;31.27;;;15.45;;
27517;SDS011;14962;52.482;13.142;2024-03-06T01:42:29;33.60;;;16.90;;
27517;SDS011;14962;52.482;13.142;2024-03-06T01:44:55;34.90;;;16.30;;
27517;SDS011;14962;52.482;13.142;2024-03-06T01:47:21;38.42;;;16.02;;
27517;SDS011;14962;52.482;13.142;2024-03-06T01:49:47;38.25;;;16.20;;
27517;SDS011;14962;52.482;13.142;2024-03-06T01:52:14;41.10;;;16.55;;
27517;SDS011;14962;52.482;13.142;2024-03-06T01:54:40;30.80;;;15.80;;
27517;SDS011;14962;52.482;13.142;2024-03-06T01:57:06;31.27;;;15.45;;
27517;SDS011;14962;52.482;13.142;2024-03-06T01:59:33;33.63;;;16.27;;
27517;SDS011;14962;52.482;13.142;2024-03-06T02:01:59;37.53;;;16.48;;
27517;SDS011;14962;52.482;13.142;2024-03-06T02:04:26;35.15;;;17.15;;
27517;SDS011;14962;52.482;13.142;2024-03-06T02:06:53;34.88;;;16.60;;
27517;SDS011;14962;52.482;13.142;2024-03-06T02:09:19;32.60;;;15.05;;
27517;SDS011;14962;52.482;13.142;2024-03-06T02:11:46;36.25;;;17.10;;
27517;SDS011;14962;52.482;13.142;2024-03-06T02:14:12;36.45;;;16.40;;
27517;SDS011;14962;52.482;13.142;2024-03-06T02:16:38;39.75;;;17.58;;
27517;SDS011;14962;52.482;13.142;2024-03-06T02:19:04;34.70;;;16.30;;
27517;SDS011;14962;52.482;13.142;2024-03-06T02:21:30;37.20;;;16.88;;
27517;SDS011;14962;52.482;13.142;2024-03-06T02:23:56;32.65;;;15.68;;
27517;SDS011;14962;52.482;13.142;2024-03-06T02:26:23;36.90;;;16.67;;
27517;SDS011;14962;52.482;13.142;2024-03-06T02:28:49;38.17;;;16.38;;
27517;SDS011;14962;52.482;13.142;2024-03-06T02:31:16;33.20;;;16.13;;
27517;SDS011;14962;52.482;13.142;2024-03-06T02:33:43;37.17;;;17.33;;
27517;SDS011;14962;52.482;13.142;2024-03-06T02:36:17;35.13;;;16.65;;
27517;SDS011;14962;52.482;13.142;2024-03-06T02:38:44;33.08;;;15.50;;
27517;SDS011;14962;52.482;13.142;2024-03-06T02:41:10;30.13;;;15.45;;
27517;SDS011;14962;52.482;13.142;2024-03-06T02:43:37;34.55;;;15.93;;
27517;SDS011;14962;52.482;13.142;2024-03-06T02:46:03;37.97;;;17.55;;
27517;SDS011;14962;52.482;13.142;2024-03-06T02:48:29;38.05;;;17.35;;
27517;SDS011;14962;52.482;13.142;2024-03-06T02:50:55;35.97;;;16.52;;
27517;SDS011;14962;52.482;13.142;2024-03-06T02:53:21;34.58;;;15.90;;
27517;SDS011;14962;52.482;13.142;2024-03-06T02:55:48;30.60;;;15.43;;
27517;SDS011;14962;52.482;13.142;2024-03-06T02:58:14;33.65;;;16.38;;
27517;SDS011;14962;52.482;13.142;2024-03-06T03:00:41;32.83;;;16.65;;
27517;SDS011;14962;52.482;13.142;2024-03-06T03:03:07;33.08;;;16.48;;
27517;SDS011;14962;52.482;13.142;2024-03-06T03:05:33;30.50;;;15.00;;
27517;SDS011;14962;52.482;13.142;2024-03-06T03:07:59;30.98;;;16.42;;
27517;SDS011;14962;52.482;13.142;2024-03-06T03:10:25;32.38;;;15.52;;
27517;SDS011;14962;52.482;13.142;2024-03-06T03:12:51;30.08;;;14.85;;
27517;SDS011;14962;52.482;13.142;2024-03-06T03:15:18;33.65;;;15.32;;
27517;SDS011;14962;52.482;13.142;2024-03-06T03:17:43;38.42;;;17.40;;
27517;SDS011;14962;52.482;13.142;2024-03-06T03:20:10;36.60;;;15.85;;
27517;SDS011;14962;52.482;13.142;2024-03-06T03:22:39;36.08;;;15.95;;
27517;SDS011;14962;52.482;13.142;2024-03-06T03:25:07;33.78;;;16.30;;
27517;SDS011;14962;52.482;13.142;2024-03-06T03:27:33;37.40;;;16.20;;
27517;SDS011;14962;52.482;13.142;2024-03-06T03:29:59;31.80;;;15.60;;
27517;SDS011;14962;52.482;13.142;2024-03-06T03:32:25;35.03;;;16.48;;
27517;SDS011;14962;52.482;13.142;2024-03-06T03:34:51;37.00;;;15.93;;
27517;SDS011;14962;52.482;13.142;2024-03-06T03:37:17;34.92;;;17.02;;
27517;SDS011;14962;52.482;13.142;2024-03-06T03:39:43;37.08;;;16.75;;
27517;SDS011;14962;52.482;13.142;2024-03-06T03:42:09;37.28;;;17.80;;
27517;SDS011;14962;52.482;13.142;2024-03-06T03:44:35;35.28;;;16.35;;
27517;SDS011;14962;52.482;13.142;2024-03-06T03:47:01;36.63;;;17.63;;
27517;SDS011;14962;52.482;13.142;2024-03-06T03:49:27;39.35;;;16.77;;
27517;SDS011;14962;52.482;13.142;2024-03-06T03:51:53;34.50;;;16.27;;
27517;SDS011;14962;52.482;13.142;2024-03-06T03:54:19;35.15;;;16.38;;
27517;SDS011;14962;52.482;13.142;2024-03-06T03:56:45;37.35;;;16.35;;
27517;SDS011;14962;52.482;13.142;2024-03-06T03:59:11;35.72;;;17.25;;
27517;SDS011;14962;52.482;13.142;2024-03-06T04:01:37;35.88;;;16.27;;
27517;SDS011;14962;52.482;13.142;2024-03-06T04:04:03;33.00;;;16.33;;
27517;SDS011;14962;52.482;13.142;2024-03-06T04:06:29;34.28;;;16.30;;
27517;SDS011;14962;52.482;13.142;2024-03-06T04:08:55;33.90;;;16.95;;
27517;SDS011;14962;52.482;13.142;2024-03-06T04:11:21;35.45;;;16.00;;
27517;SDS011;14962;52.482;13.142;2024-03-06T04:13:47;37.55;;;15.70;;
27517;SDS011;14962;52.482;13.142;2024-03-06T04:16:16;35.90;;;16.00;;
27517;SDS011;14962;52.482;13.142;2024-03-06T04:18:43;36.40;;;17.23;;
27517;SDS011;14962;52.482;13.142;2024-03-06T04:21:10;31.90;;;15.43;;
27517;SDS011;14962;52.482;13.142;2024-03-06T04:23:36;33.47;;;16.45;;
27517;SDS011;14962;52.482;13.142;2024-03-06T04:26:02;41.35;;;17.90;;
27517;SDS011;14962;52.482;13.142;2024-03-06T04:28:29;40.60;;;17.25;;
27517;SDS011;14962;52.482;13.142;2024-03-06T04:30:55;38.78;;;16.90;;
27517;SDS011;14962;52.482;13.142;2024-03-06T04:33:21;36.42;;;16.42;;
27517;SDS011;14962;52.482;13.142;2024-03-06T04:35:47;41.08;;;17.92;;
27517;SDS011;14962;52.482;13.142;2024-03-06T04:38:13;48.42;;;18.20;;
27517;SDS011;14962;52.482;13.142;2024-03-06T04:40:40;44.67;;;18.23;;
27517;SDS011;14962;52.482;13.142;2024-03-06T04:43:06;39.50;;;16.45;;
27517;SDS011;14962;52.482;13.142;2024-03-06T04:45:32;38.95;;;17.17;;
27517;SDS011;14962;52.482;13.142;2024-03-06T04:47:58;37.67;;;16.23;;
27517;SDS011;14962;52.482;13.142;2024-03-06T04:50:25;39.30;;;17.73;;
27517;SDS011;14962;52.482;13.142;2024-03-06T04:52:52;37.38;;;16.45;;
27517;SDS011;14962;52.482;13.142;2024-03-06T04:55:18;37.50;;;17.15;;
27517;SDS011;14962;52.482;13.142;2024-03-06T04:57:47;36.50;;;17.48;;
27517;SDS011;14962;52.482;13.142;2024-03-06T05:00:14;38.03;;;17.58;;
27517;SDS011;14962;52.482;13.142;2024-03-06T05:02:40;42.08;;;17.55;;
27517;SDS011;14962;52.482;13.142;2024-03-06T05:05:07;36.20;;;16.95;;
27517;SDS011;14962;52.482;13.142;2024-03-06T05:07:33;34.92;;;16.98;;
27517;SDS011;14962;52.482;13.142;2024-03-06T05:09:59;37.42;;;16.95;;
27517;SDS011;14962;52.482;13.142;2024-03-06T05:12:26;41.78;;;17.45;;
27517;SDS011;14962;52.482;13.142;2024-03-06T05:14:52;38.13;;;18.27;;
27517;SDS011;14962;52.482;13.142;2024-03-06T05:17:18;35.88;;;17.42;;
27517;SDS011;14962;52.482;13.142;2024-03-06T05:19:45;38.97;;;16.63;;
27517;SDS011;14962;52.482;13.142;2024-03-06T05:22:12;42.38;;;18.13;;
27517;SDS011;14962;52.482;13.142;2024-03-06T05:24:38;37.72;;;17.88;;
27517;SDS011;14962;52.482;13.142;2024-03-06T05:27:04;38.33;;;17.95;;
27517;SDS011;14962;52.482;13.142;2024-03-06T05:29:30;35.95;;;17.52;;
27517;SDS011;14962;52.482;13.142;2024-03-06T05:31:56;41.58;;;18.73;;
27517;SDS011;14962;52.482;13.142;2024-03-06T05:34:22;37.08;;;17.25;;
27517;SDS011;14962;52.482;13.142;2024-03-06T05:36:48;38.38;;;17.65;;
27517;SDS011;14962;52.482;13.142;2024-03-06T05:39:14;40.15;;;17.58;;
27517;SDS011;14962;52.482;13.142;2024-03-06T05:41:42;38.25;;;16.48;;
27517;SDS011;14962;52.482;13.142;2024-03-06T05:44:08;33.65;;;15.85;;
27517;SDS011;14962;52.482;13.142;2024-03-06T05:46:34;33.28;;;17.20;;
27517;SDS011;14962;52.482;13.142;2024-03-06T05:49:01;35.30;;;16.27;;
27517;SDS011;14962;52.482;13.142;2024-03-06T05:51:27;32.28;;;16.27;;
27517;SDS011;14962;52.482;13.142;2024-03-06T05:53:53;38.97;;;17.02;;
27517;SDS011;14962;52.482;13.142;2024-03-06T05:56:19;46.97;;;17.23;;
27517;SDS011;14962;52.482;13.142;2024-03-06T05:58:45;35.28;;;17.75;;
27517;SDS011;14962;52.482;13.142;2024-03-06T06:01:12;45.28;;;17.33;;
27517;SDS011;14962;52.482;13.142;2024-03-06T06:03:40;35.05;;;15.93;;
27517;SDS011;14962;52.482;13.142;2024-03-06T06:06:06;39.30;;;17.35;;
27517;SDS011;14962;52.482;13.142;2024-03-06T06:08:33;41.90;;;17.17;;
27517;SDS011;14962;52.482;13.142;2024-03-06T06:10:59;41.58;;;17.08;;
27517;SDS011;14962;52.482;13.142;2024-03-06T06:13:25;39.05;;;16.83;;
27517;SDS011;14962;52.482;13.142;2024-03-06T06:15:51;39.03;;;17.23;;
27517;SDS011;14962;52.482;13.142;2024-03-06T06:18:17;34.95;;;15.70;;
27517;SDS011;14962;52.482;13.142;2024-03-06T06:20:43;38.88;;;16.95;;
27517;SDS011;14962;52.482;13.142;2024-03-06T06:23:09;39.90;;;16.73;;
27517;SDS011;14962;52.482;13.142;2024-03-06T06:25:35;33.63;;;16.00;;
27517;SDS011;14962;52.482;13.142;2024-03-06T06:28:01;37.25;;;16.30;;
27517;SDS011;14962;52.482;13.142;2024-03-06T06:30:27;37.92;;;16.55;;
27517;SDS011;14962;52.482;13.142;2024-03-06T06:32:53;37.00;;;17.23;;
27517;SDS011;14962;52.482;13.142;2024-03-06T06:35:19;36.67;;;15.93;;
27517;SDS011;14962;52.482;13.142;2024-03-06T06:37:45;35.38;;;16.88;;
27517;SDS011;14962;52.482;13.142;2024-03-06T06:40:11;42.67;;;16.70;;
27517;SDS011;14962;52.482;13.142;2024-03-06T06:42:38;40.53;;;16.88;;
27517;SDS011;14962;52.482;13.142;2024-03-06T06:45:10;38.22;;;17.27;;
27517;SDS011;14962;52.482;13.142;2024-03-06T06:47:36;31.63;;;15.43;;
27517;SDS011;14962;52.482;13.142;2024-03-06T06:50:02;34.55;;;16.23;;
27517;SDS011;14962;52.482;13.142;2024-03-06T06:52:31;35.47;;;15.95;;
27517;SDS011;14962;52.482;13.142;2024-03-06T06:54:58;37.88;;;17.95;;
27517;SDS011;14962;52.482;13.142;2024-03-06T06:57:24;37.63;;;15.82;;
27517;SDS011;14962;52.482;13.142;2024-03-06T06:59:51;35.15;;;16.20;;
27517;SDS011;14962;52.482;13.142;2024-03-06T07:02:17;41.50;;;16.88;;
27517;SDS011;14962;52.482;13.142;2024-03-06T07:04:43;35.13;;;15.40;;
27517;SDS011;14962;52.482;13.142;2024-03-06T07:07:09;41.42;;;16.95;;
27517;SDS011;14962;52.482;13.142;2024-03-06T07:09:35;35.20;;;16.42;;
27517;SDS011;14962;52.482;13.142;2024-03-06T07:12:01;37.28;;;16.75;;
27517;SDS011;14962;52.482;13.142;2024-03-06T07:14:28;38.13;;;16.70;;
27517;SDS011;14962;52.482;13.142;2024-03-06T07:16:54;38.58;;;17.00;;
27517;SDS011;14962;52.482;13.142;2024-03-06T07:19:19;38.00;;;17.92;;
27517;SDS011;14962;52.482;13.142;2024-03-06T07:21:45;42.63;;;16.42;;
27517;SDS011;14962;52.482;13.142;2024-03-06T07:24:12;39.38;;;16.42;;
27517;SDS011;14962;52.482;13.142;2024-03-06T07:26:38;34.20;;;16.85;;
27517;SDS011;14962;52.482;13.142;2024-03-06T07:29:04;36.17;;;16.83;;
27517;SDS011;14962;52.482;13.142;2024-03-06T07:31:37;40.35;;;19.38;;
27517;SDS011;14962;52.482;13.142;2024-03-06T07:34:04;40.67;;;18.33;;
27517;SDS011;14962;52.482;13.142;2024-03-06T07:36:31;42.33;;;18.30;;
27517;SDS011;14962;52.482;13.142;2024-03-06T07:38:58;38.67;;;17.23;;
27517;SDS011;14962;52.482;13.142;2024-03-06T07:41:24;47.50;;;18.77;;
27517;SDS011;14962;52.482;13.142;2024-03-06T07:43:50;43.20;;;19.27;;
27517;SDS011;14962;52.482;13.142;2024-03-06T07:46:16;42.15;;;18.95;;
27517;SDS011;14962;52.482;13.142;2024-03-06T07:48:42;40.42;;;19.08;;
27517;SDS011;14962;52.482;13.142;2024-03-06T07:51:11;43.90;;;20.05;;
27517;SDS011;14962;52.482;13.142;2024-03-06T07:53:37;41.95;;;18.65;;
27517;SDS011;14962;52.482;13.142;2024-03-06T07:56:03;33.78;;;17.17;;
27517;SDS011;14962;52.482;13.142;2024-03-06T07:58:29;41.13;;;18.77;;
27517;SDS011;14962;52.482;13.142;2024-03-06T08:00:56;43.10;;;18.75;;
27517;SDS011;14962;52.482;13.142;2024-03-06T08:03:22;40.65;;;19.65;;
27517;SDS011;14962;52.482;13.142;2024-03-06T08:05:52;36.67;;;19.50;;
27517;SDS011;14962;52.482;13.142;2024-03-06T08:08:18;46.05;;;19.17;;
27517;SDS011;14962;52.482;13.142;2024-03-06T08:10:44;39.63;;;20.08;;
27517;SDS011;14962;52.482;13.142;2024-03-06T08:13:10;37.10;;;18.58;;
27517;SDS011;14962;52.482;13.142;2024-03-06T08:15:36;36.22;;;18.08;;
27517;SDS011;14962;52.482;13.142;2024-03-06T08:18:02;35.22;;;18.38;;
27517;SDS011;14962;52.482;13.142;2024-03-06T08:20:28;40.15;;;19.35;;
27517;SDS011;14962;52.482;13.142;2024-03-06T08:22:55;34.92;;;18.48;;
27517;SDS011;14962;52.482;13.142;2024-03-06T08:25:21;37.47;;;18.40;;
27517;SDS011;14962;52.482;13.142;2024-03-06T08:27:47;35.55;;;18.08;;
27517;SDS011;14962;52.482;13.142;2024-03-06T08:30:14;38.80;;;18.83;;
27517;SDS011;14962;52.482;13.142;2024-03-06T08:32:40;35.58;;;17.30;;
27517;SDS011;14962;52.482;13.142;2024-03-06T08:35:08;35.13;;;17.75;;
27517;SDS011;14962;52.482;13.142;2024-03-06T08:37:40;36.67;;;17.90;;
27517;SDS011;14962;52.482;13.142;2024-03-06T08:40:07;32.92;;;17.77;;
27517;SDS011;14962;52.482;13.142;2024-03-06T08:42:35;33.88;;;17.40;;
27517;SDS011;14962;52.482;13.142;2024-03-06T08:45:01;34.85;;;17.27;;
27517;SDS011;14962;52.482;13.142;2024-03-06T08:47:27;34.92;;;18.15;;
27517;SDS011;14962;52.482;13.142;2024-03-06T08:49:53;34.75;;;16.65;;
27517;SDS011;14962;52.482;13.142;2024-03-06T08:52:19;38.95;;;18.23;;
27517;SDS011;14962;52.482;13.142;2024-03-06T08:54:46;37.10;;;17.73;;
27517;SDS011;14962;52.482;13.142;2024-03-06T08:57:12;33.80;;;16.80;;
27517;SDS011;14962;52.482;13.142;2024-03-06T08:59:38;31.90;;;16.77;;
27517;SDS011;14962;52.482;13.142;2024-03-06T09:02:14;33.80;;;16.48;;
27517;SDS011;14962;52.482;13.142;2024-03-06T09:04:41;31.95;;;17.02;;
27517;SDS011;14962;52.482;13.142;2024-03-06T09:07:07;33.58;;;16.95;;
27517;SDS011;14962;52.482;13.142;2024-03-06T09:09:33;33.42;;;17.40;;
27517;SDS011;14962;52.482;13.142;2024-03-06T09:12:00;30.02;;;15.98;;
27517;SDS011;14962;52.482;13.142;2024-03-06T09:14:26;35.13;;;17.60;;
27517;SDS011;14962;52.482;13.142;2024-03-06T09:16:52;35.13;;;17.48;;
27517;SDS011;14962;52.482;13.142;2024-03-06T09:19:19;33.83;;;16.75;;
27517;SDS011;14962;52.482;13.142;2024-03-06T09:21:45;37.05;;;16.92;;
27517;SDS011;14962;52.482;13.142;2024-03-06T09:24:10;37.13;;;17.80;;
27517;SDS011;14962;52.482;13.142;2024-03-06T09:26:36;32.40;;;16.67;;
27517;SDS011;14962;52.482;13.142;2024-03-06T09:29:02;29.67;;;16.63;;
27517;SDS011;14962;52.482;13.142;2024-03-06T09:31:29;31.65;;;15.68;;
27517;SDS011;14962;52.482;13.142;2024-03-06T09:33:55;25.20;;;14.40;;
27517;SDS011;14962;52.482;13.142;2024-03-06T09:36:20;29.23;;;15.23;;
27517;SDS011;14962;52.482;13.142;2024-03-06T09:38:46;26.27;;;14.30;;
27517;SDS011;14962;52.482;13.142;2024-03-06T09:41:12;26.90;;;15.20;;
27517;SDS011;14962;52.482;13.142;2024-03-06T09:43:38;28.08;;;14.82;;
27517;SDS011;14962;52.482;13.142;2024-03-06T09:46:06;29.80;;;15.15;;
27517;SDS011;14962;52.482;13.142;2024-03-06T09:48:32;25.67;;;14.45;;
27517;SDS011;14962;52.482;13.142;2024-03-06T09:51:02;24.42;;;13.10;;
27517;SDS011;14962;52.482;13.142;2024-03-06T09:53:28;22.83;;;12.73;;
27517;SDS011;14962;52.482;13.142;2024-03-06T09:55:54;20.10;;;11.65;;
27517;SDS011;14962;52.482;13.142;2024-03-06T09:58:20;21.92;;;12.48;;
27517;SDS011;14962;52.482;13.142;2024-03-06T10:00:47;25.35;;;12.63;;
27517;SDS011;14962;52.482;13.142;2024-03-06T10:03:13;22.92;;;11.75;;
27517;SDS011;14962;52.482;13.142;2024-03-06T10:05:39;21.13;;;12.32;;
27517;SDS011;14962;52.482;13.142;2024-03-06T10:08:08;19.58;;;10.57;;
27517;SDS011;14962;52.482;13.142;2024-03-06T10:10:35;20.73;;;10.50;;
27517;SDS011;14962;52.482;13.142;2024-03-06T10:13:01;21.20;;;10.85;;
27517;SDS011;14962;52.482;13.142;2024-03-06T10:15:28;18.23;;;9.32;;
27517;SDS011;14962;52.482;13.142;2024-03-06T10:18:09;20.63;;;9.60;;
27517;SDS011;14962;52.482;13.142;2024-03-06T10:20:37;14.25;;;7.93;;
27517;SDS011;14962;52.482;13.142;2024-03-06T10:23:03;15.55;;;8.35;;
27517;SDS011;14962;52.482;13.142;2024-03-06T10:25:29;13.20;;;7.70;;
27517;SDS011;14962;52.482;13.142;2024-03-06T10:28:05;15.50;;;8.50;;
27517;SDS011;14962;52.482;13.142;2024-03-06T10:30:32;13.13;;;7.22;;
27517;SDS011;14962;52.482;13.142;2024-03-06T10:33:00;11.52;;;6.75;;
27517;SDS011;14962;52.482;13.142;2024-03-06T10:35:26;13.52;;;7.55;;
27517;SDS011;14962;52.482;13.142;2024-03-06T10:37:52;15.30;;;7.47;;
27517;SDS011;14962;52.482;13.142;2024-03-06T10:40:19;11.25;;;6.22;;
27517;SDS011;14962;52.482;13.142;2024-03-06T10:42:46;11.75;;;6.15;;
27517;SDS011;14962;52.482;13.142;2024-03-06T10:45:15;11.13;;;5.80;;
27517;SDS011;14962;52.482;13.142;2024-03-06T10:47:45;10.10;;;5.95;;
27517;SDS011;14962;52.482;13.142;2024-03-06T10:50:15;11.27;;;6.70;;
27517;SDS011;14962;52.482;13.142;2024-03-06T10:52:41;10.38;;;6.15;;
27517;SDS011;14962;52.482;13.142;2024-03-06T10:55:08;9.35;;;6.00;;
27517;SDS011;14962;52.482;13.142;2024-03-06T10:57:35;9.70;;;5.18;;
27517;SDS011;14962;52.482;13.142;2024-03-06T11:00:02;6.70;;;4.10;;
27517;SDS011;14962;52.482;13.142;2024-03-06T11:02:28;4.45;;;3.05;;
27517;SDS011;14962;52.482;13.142;2024-03-06T11:04:55;6.00;;;3.70;;
27517;SDS011;14962;52.482;13.142;2024-03-06T11:07:21;7.13;;;3.47;;
27517;SDS011;14962;52.482;13.142;2024-03-06T11:09:47;3.65;;;2.85;;
27517;SDS011;14962;52.482;13.142;2024-03-06T11:12:27;5.65;;;3.42;;
27517;SDS011;14962;52.482;13.142;2024-03-06T11:14:57;4.53;;;3.28;;
27517;SDS011;14962;52.482;13.142;2024-03-06T11:17:26;6.25;;;3.42;;
27517;SDS011;14962;52.482;13.142;2024-03-06T11:23:01;6.72;;;4.28;;
27517;SDS011;14962;52.482;13.142;2024-03-06T11:25:55;9.43;;;4.30;;
27517;SDS011;14962;52.482;13.142;2024-03-06T11:28:03;7.65;;;4.28;;
27517;SDS011;14962;52.482;13.142;2024-03-06T11:30:30;8.05;;;4.25;;
27517;SDS011;14962;52.482;13.142;2024-03-06T11:32:59;6.70;;;4.07;;
27517;SDS011;14962;52.482;13.142;2024-03-06T11:35:27;7.28;;;4.43;;
27517;SDS011;14962;52.482;13.142;2024-03-06T11:37:54;9.77;;;5.35;;
27517;SDS011;14962;52.482;13.142;2024-03-06T11:40:25;9.05;;;5.18;;
27517;SDS011;14962;52.482;13.142;2024-03-06T11:42:52;12.65;;;5.88;;
27517;SDS011;14962;52.482;13.142;2024-03-06T11:45:18;12.57;;;5.60;;
27517;SDS011;14962;52.482;13.142;2024-03-06T11:47:59;11.43;;;5.80;;
27517;SDS011;14962;52.482;13.142;2024-03-06T11:50:26;9.35;;;5.80;;
27517;SDS011;14962;52.482;13.142;2024-03-06T11:52:56;13.25;;;8.70;;
27517;SDS011;14962;52.482;13.142;2024-03-06T11:55:23;13.45;;;8.63;;
27517;SDS011;14962;52.482;13.142;2024-03-06T11:57:52;15.07;;;8.52;;
27517;SDS011;14962;52.482;13.142;2024-03-06T12:00:21;13.00;;;7.85;;
27517;SDS011;14962;52.482;13.142;2024-03-06T12:02:48;10.23;;;6.85;;
27517;SDS011;14962;52.482;13.142;2024-03-06T12:05:14;10.32;;;6.03;;
27517;SDS011;14962;52.482;13.142;2024-03-06T12:07:49;12.93;;;6.65;;
27517;SDS011;14962;52.482;13.142;2024-03-06T12:10:16;12.20;;;7.35;;
27517;SDS011;14962;52.482;13.142;2024-03-06T12:12:42;10.70;;;6.75;;
27517;SDS011;14962;52.482;13.142;2024-03-06T12:15:09;12.45;;;7.05;;
27517;SDS011;14962;52.482;13.142;2024-03-06T12:17:46;13.38;;;8.00;;
27517;SDS011;14962;52.482;13.142;2024-03-06T12:20:13;14.23;;;7.63;;
27517;SDS011;14962;52.482;13.142;2024-03-06T12:22:44;11.65;;;7.18;;
27517;SDS011;14962;52.482;13.142;2024-03-06T12:25:10;8.88;;;6.18;;
27517;SDS011;14962;52.482;13.142;2024-03-06T12:27:36;12.32;;;6.45;;
27517;SDS011;14962;52.482;13.142;2024-03-06T12:30:03;12.82;;;7.28;;
27517;SDS011;14962;52.482;13.142;2024-03-06T12:32:33;12.40;;;7.43;;
27517;SDS011;14962;52.482;13.142;2024-03-06T12:34:59;10.30;;;6.18;;
27517;SDS011;14962;52.482;13.142;2024-03-06T12:37:28;10.68;;;5.97;;
27517;SDS011;14962;52.482;13.142;2024-03-06T12:39:57;8.82;;;5.72;;
27517;SDS011;14962;52.482;13.142;2024-03-06T12:42:23;9.60;;;5.60;;
27517;SDS011;14962;52.482;13.142;2024-03-06T12:44:50;7.13;;;4.28;;
27517;SDS011;14962;52.482;13.142;2024-03-06T12:47:16;10.40;;;5.43;;
27517;SDS011;14962;52.482;13.142;2024-03-06T12:49:42;7.20;;;4.65;;
27517;SDS011;14962;52.482;13.142;2024-03-06T12:52:08;6.15;;;4.25;;
27517;SDS011;14962;52.482;13.142;2024-03-06T12:54:34;7.93;;;4.75;;
27517;SDS011;14962;52.482;13.142;2024-03-06T12:57:00;8.63;;;4.82;;
27517;SDS011;14962;52.482;13.142;2024-03-06T12:59:27;7.07;;;4.60;;
27517;SDS011;14962;52.482;13.142;2024-03-06T13:01:53;7.18;;;4.93;;
27517;SDS011;14962;52.482;13.142;2024-03-06T13:04:19;7.35;;;4.47;;
27517;SDS011;14962;52.482;13.142;2024-03-06T13:06:45;7.90;;;4.75;;
27517;SDS011;14962;52.482;13.142;2024-03-06T13:09:11;7.93;;;5.10;;
27517;SDS011;14962;52.482;13.142;2024-03-06T13:11:37;7.60;;;5.15;;
27517;SDS011;14962;52.482;13.142;2024-03-06T13:14:03;7.47;;;4.68;;
27517;SDS011;14962;52.482;13.142;2024-03-06T13:16:29;8.25;;;5.35;;
27517;SDS011;14962;52.482;13.142;2024-03-06T13:18:55;7.72;;;4.75;;
27517;SDS011;14962;52.482;13.142;2024-03-06T13:21:22;10.40;;;4.45;;
27517;SDS011;14962;52.482;13.142;2024-03-06T13:23:48;6.32;;;4.40;;
27517;SDS011;14962;52.482;13.142;2024-03-06T13:26:14;6.25;;;4.10;;
27517;SDS011;14962;52.482;13.142;2024-03-06T13:28:40;8.25;;;5.55;;
27517;SDS011;14962;52.482;13.142;2024-03-06T13:31:06;7.45;;;4.95;;
27517;SDS011;14962;52.482;13.142;2024-03-06T13:33:33;7.32;;;4.90;;
27517;SDS011;14962;52.482;13.142;2024-03-06T13:35:59;7.85;;;4.80;;
27517;SDS011;14962;52.482;13.142;2024-03-06T13:38:25;8.52;;;5.28;;
27517;SDS011;14962;52.482;13.142;2024-03-06T13:40:51;7.70;;;5.00;;
27517;SDS011;14962;52.482;13.142;2024-03-06T13:43:16;8.77;;;5.75;;
27517;SDS011;14962;52.482;13.142;2024-03-06T13:45:48;11.95;;;6.20;;
27517;SDS011;14962;52.482;13.142;2024-03-06T13:48:14;11.30;;;6.18;;
27517;SDS011;14962;52.482;13.142;2024-03-06T13:50:42;11.95;;;6.45;;
27517;SDS011;14962;52.482;13.142;2024-03-06T13:53:08;12.60;;;6.50;;
27517;SDS011;14962;52.482;13.142;2024-03-06T13:55:34;16.98;;;7.47;;
27517;SDS011;14962;52.482;13.142;2024-03-06T13:58:00;10.93;;;7.10;;
27517;SDS011;14962;52.482;13.142;2024-03-06T14:00:26;14.00;;;8.07;;
27517;SDS011;14962;52.482;13.142;2024-03-06T14:02:52;12.77;;;7.70;;
27517;SDS011;14962;52.482;13.142;2024-03-06T14:05:18;14.15;;;7.93;;
27517;SDS011;14962;52.482;13.142;2024-03-06T14:07:50;13.85;;;7.97;;
27517;SDS011;14962;52.482;13.142;2024-03-06T14:10:15;14.70;;;8.30;;
27517;SDS011;14962;52.482;13.142;2024-03-06T14:12:44;18.08;;;8.38;;
27517;SDS011;14962;52.482;13.142;2024-03-06T14:15:10;17.17;;;8.38;;